sensor_id;sensor_type;location;lat;lon;timestamp;P1;durP1;ratioP1;P2;durP2;ratioP2
50906;SDS011;36882;27.680;85.304;2023-04-30T00:00:26;154.90;;;109.30;;
50906;SDS011;36882;27.680;85.304;2023-04-30T00:02:56;151.75;;;110.43;;
50906;SDS011;36882;27.680;85.304;2023-04-30T00:05:26;160.38;;;111.38;;
50906;SDS011;36882;27.680;85.304;2023-04-30T00:07:55;175.15;;;120.10;;
50906;SDS011;36882;27.680;85.304;2023-04-30T00:10:25;174.65;;;113.85;;
50906;SDS011;36882;27.680;85.304;2023-04-30T00:12:56;185.35;;;119.85;;
50906;SDS011;36882;27.680;85.304;2023-04-30T00:15:27;176.45;;;114.75;;
50906;SDS011;36882;27.680;85.304;2023-04-30T00:17:58;160.95;;;114.15;;
50906;SDS011;36882;27.680;85.304;2023-04-30T00:20:28;186.52;;;119.38;;
50906;SDS011;36882;27.680;85.304;2023-04-30T00:22:58;175.30;;;117.15;;
50906;SDS011;36882;27.680;85.304;2023-04-30T00:25:28;183.38;;;117.45;;
50906;SDS011;36882;27.680;85.304;2023-04-30T00:27:58;182.32;;;122.25;;
50906;SDS011;36882;27.680;85.304;2023-04-30T00:30:28;177.88;;;125.53;;
50906;SDS011;36882;27.680;85.304;2023-04-30T00:32:59;185.98;;;119.97;;
50906;SDS011;36882;27.680;85.304;2023-04-30T00:35:29;189.07;;;126.70;;
50906;SDS011;36882;27.680;85.304;2023-04-30T00:37:59;173.98;;;119.47;;
50906;SDS011;36882;27.680;85.304;2023-04-30T00:40:29;167.60;;;111.95;;
50906;SDS011;36882;27.680;85.304;2023-04-30T00:42:58;161.77;;;110.00;;
50906;SDS011;36882;27.680;85.304;2023-04-30T00:45:28;170.32;;;113.20;;
50906;SDS011;36882;27.680;85.304;2023-04-30T00:47:58;160.30;;;109.05;;
50906;SDS011;36882;27.680;85.304;2023-04-30T00:50:28;146.75;;;106.47;;
50906;SDS011;36882;27.680;85.304;2023-04-30T00:52:58;165.77;;;110.95;;
50906;SDS011;36882;27.680;85.304;2023-04-30T00:55:28;152.00;;;104.88;;
50906;SDS011;36882;27.680;85.304;2023-04-30T00:57:58;157.00;;;107.65;;
50906;SDS011;36882;27.680;85.304;2023-04-30T01:00:30;156.25;;;106.70;;
50906;SDS011;36882;27.680;85.304;2023-04-30T01:03:00;150.68;;;103.20;;
50906;SDS011;36882;27.680;85.304;2023-04-30T01:05:30;146.38;;;99.93;;
50906;SDS011;36882;27.680;85.304;2023-04-30T01:07:59;145.18;;;102.07;;
50906;SDS011;36882;27.680;85.304;2023-04-30T01:10:31;146.73;;;107.50;;
50906;SDS011;36882;27.680;85.304;2023-04-30T01:15:44;144.60;;;102.43;;
50906;SDS011;36882;27.680;85.304;2023-04-30T01:18:21;149.10;;;103.97;;
50906;SDS011;36882;27.680;85.304;2023-04-30T01:20:52;140.23;;;103.55;;
50906;SDS011;36882;27.680;85.304;2023-04-30T01:28:33;144.07;;;105.18;;
50906;SDS011;36882;27.680;85.304;2023-04-30T01:31:10;153.32;;;107.20;;
50906;SDS011;36882;27.680;85.304;2023-04-30T01:33:40;151.77;;;106.65;;
50906;SDS011;36882;27.680;85.304;2023-04-30T01:36:12;153.60;;;105.40;;
50906;SDS011;36882;27.680;85.304;2023-04-30T01:44:05;132.50;;;100.13;;
50906;SDS011;36882;27.680;85.304;2023-04-30T01:46:41;144.07;;;102.00;;
50906;SDS011;36882;27.680;85.304;2023-04-30T01:49:26;141.65;;;100.38;;
50906;SDS011;36882;27.680;85.304;2023-04-30T01:52:18;143.63;;;102.72;;
50906;SDS011;36882;27.680;85.304;2023-04-30T01:54:56;137.43;;;101.13;;
50906;SDS011;36882;27.680;85.304;2023-04-30T01:57:33;134.82;;;101.43;;
50906;SDS011;36882;27.680;85.304;2023-04-30T02:00:05;143.13;;;98.90;;
50906;SDS011;36882;27.680;85.304;2023-04-30T02:02:37;147.73;;;103.38;;
50906;SDS011;36882;27.680;85.304;2023-04-30T02:05:07;141.55;;;104.95;;
50906;SDS011;36882;27.680;85.304;2023-04-30T02:10:07;140.73;;;102.57;;
50906;SDS011;36882;27.680;85.304;2023-04-30T02:12:38;150.32;;;107.53;;
50906;SDS011;36882;27.680;85.304;2023-04-30T02:15:08;141.73;;;106.20;;
50906;SDS011;36882;27.680;85.304;2023-04-30T02:17:38;149.40;;;106.80;;
50906;SDS011;36882;27.680;85.304;2023-04-30T02:20:08;144.25;;;104.57;;
50906;SDS011;36882;27.680;85.304;2023-04-30T02:22:38;136.30;;;101.93;;
50906;SDS011;36882;27.680;85.304;2023-04-30T02:25:08;137.95;;;100.80;;
50906;SDS011;36882;27.680;85.304;2023-04-30T02:27:39;138.15;;;101.20;;
50906;SDS011;36882;27.680;85.304;2023-04-30T02:30:09;132.82;;;101.18;;
50906;SDS011;36882;27.680;85.304;2023-04-30T02:32:39;130.35;;;99.20;;
50906;SDS011;36882;27.680;85.304;2023-04-30T02:35:09;147.88;;;102.40;;
50906;SDS011;36882;27.680;85.304;2023-04-30T02:37:39;137.10;;;104.13;;
50906;SDS011;36882;27.680;85.304;2023-04-30T02:40:09;152.95;;;103.22;;
50906;SDS011;36882;27.680;85.304;2023-04-30T02:42:38;153.48;;;106.32;;
50906;SDS011;36882;27.680;85.304;2023-04-30T02:45:08;130.65;;;97.40;;
50906;SDS011;36882;27.680;85.304;2023-04-30T02:47:38;122.20;;;92.35;;
50906;SDS011;36882;27.680;85.304;2023-04-30T02:50:08;121.03;;;93.63;;
50906;SDS011;36882;27.680;85.304;2023-04-30T02:52:40;123.88;;;89.75;;
50906;SDS011;36882;27.680;85.304;2023-04-30T02:55:09;121.50;;;87.85;;
50906;SDS011;36882;27.680;85.304;2023-04-30T02:57:39;115.88;;;87.07;;
50906;SDS011;36882;27.680;85.304;2023-04-30T03:00:09;115.53;;;90.70;;
50906;SDS011;36882;27.680;85.304;2023-04-30T03:05:09;128.43;;;95.70;;
50906;SDS011;36882;27.680;85.304;2023-04-30T03:07:40;132.75;;;98.35;;
50906;SDS011;36882;27.680;85.304;2023-04-30T03:10:10;130.25;;;96.57;;
50906;SDS011;36882;27.680;85.304;2023-04-30T03:12:40;137.40;;;99.80;;
50906;SDS011;36882;27.680;85.304;2023-04-30T03:15:10;140.52;;;98.80;;
50906;SDS011;36882;27.680;85.304;2023-04-30T03:17:40;136.70;;;103.05;;
50906;SDS011;36882;27.680;85.304;2023-04-30T03:20:12;138.77;;;98.15;;
50906;SDS011;36882;27.680;85.304;2023-04-30T03:22:42;127.15;;;97.32;;
50906;SDS011;36882;27.680;85.304;2023-04-30T03:25:11;142.98;;;101.43;;
50906;SDS011;36882;27.680;85.304;2023-04-30T03:27:41;135.65;;;93.55;;
50906;SDS011;36882;27.680;85.304;2023-04-30T03:30:11;140.73;;;99.60;;
50906;SDS011;36882;27.680;85.304;2023-04-30T03:32:44;144.18;;;101.13;;
50906;SDS011;36882;27.680;85.304;2023-04-30T03:35:14;134.15;;;99.53;;
50906;SDS011;36882;27.680;85.304;2023-04-30T03:37:43;129.85;;;95.32;;
50906;SDS011;36882;27.680;85.304;2023-04-30T03:40:14;120.70;;;94.63;;
50906;SDS011;36882;27.680;85.304;2023-04-30T03:42:44;126.63;;;92.45;;
50906;SDS011;36882;27.680;85.304;2023-04-30T03:45:17;122.32;;;91.85;;
50906;SDS011;36882;27.680;85.304;2023-04-30T03:47:46;111.18;;;84.65;;
50906;SDS011;36882;27.680;85.304;2023-04-30T03:50:17;118.40;;;91.18;;
50906;SDS011;36882;27.680;85.304;2023-04-30T03:55:17;123.38;;;88.78;;
50906;SDS011;36882;27.680;85.304;2023-04-30T03:57:47;124.13;;;89.57;;
50906;SDS011;36882;27.680;85.304;2023-04-30T04:00:17;121.57;;;89.57;;
50906;SDS011;36882;27.680;85.304;2023-04-30T04:02:47;122.28;;;86.85;;
50906;SDS011;36882;27.680;85.304;2023-04-30T04:05:18;123.72;;;88.68;;
50906;SDS011;36882;27.680;85.304;2023-04-30T04:07:48;123.00;;;84.18;;
50906;SDS011;36882;27.680;85.304;2023-04-30T04:10:18;103.32;;;83.95;;
50906;SDS011;36882;27.680;85.304;2023-04-30T04:12:48;116.38;;;81.95;;
50906;SDS011;36882;27.680;85.304;2023-04-30T04:15:17;102.00;;;80.00;;
50906;SDS011;36882;27.680;85.304;2023-04-30T04:17:48;111.70;;;82.63;;
50906;SDS011;36882;27.680;85.304;2023-04-30T04:20:18;108.30;;;84.18;;
50906;SDS011;36882;27.680;85.304;2023-04-30T04:22:48;113.85;;;85.75;;
50906;SDS011;36882;27.680;85.304;2023-04-30T04:25:18;110.07;;;84.25;;
50906;SDS011;36882;27.680;85.304;2023-04-30T04:27:52;112.10;;;80.55;;
50906;SDS011;36882;27.680;85.304;2023-04-30T04:30:24;102.25;;;78.50;;
50906;SDS011;36882;27.680;85.304;2023-04-30T04:32:55;100.65;;;78.05;;
50906;SDS011;36882;27.680;85.304;2023-04-30T04:35:25;100.50;;;80.90;;
50906;SDS011;36882;27.680;85.304;2023-04-30T04:37:55;109.63;;;81.40;;
50906;SDS011;36882;27.680;85.304;2023-04-30T04:40:26;112.70;;;83.97;;
50906;SDS011;36882;27.680;85.304;2023-04-30T04:42:57;107.38;;;84.10;;
50906;SDS011;36882;27.680;85.304;2023-04-30T04:45:27;104.88;;;83.38;;
50906;SDS011;36882;27.680;85.304;2023-04-30T04:47:56;112.30;;;87.03;;
50906;SDS011;36882;27.680;85.304;2023-04-30T04:50:26;101.60;;;81.13;;
50906;SDS011;36882;27.680;85.304;2023-04-30T04:52:56;119.40;;;87.95;;
50906;SDS011;36882;27.680;85.304;2023-04-30T04:55:25;121.85;;;94.13;;
50906;SDS011;36882;27.680;85.304;2023-04-30T04:57:55;111.47;;;81.35;;
50906;SDS011;36882;27.680;85.304;2023-04-30T05:00:25;119.05;;;92.18;;
50906;SDS011;36882;27.680;85.304;2023-04-30T05:02:54;130.02;;;95.15;;
50906;SDS011;36882;27.680;85.304;2023-04-30T05:07:53;111.13;;;85.35;;
50906;SDS011;36882;27.680;85.304;2023-04-30T05:10:24;113.88;;;87.30;;
50906;SDS011;36882;27.680;85.304;2023-04-30T05:12:54;105.32;;;85.70;;
50906;SDS011;36882;27.680;85.304;2023-04-30T05:15:24;129.65;;;88.07;;
50906;SDS011;36882;27.680;85.304;2023-04-30T05:17:55;106.55;;;84.55;;
50906;SDS011;36882;27.680;85.304;2023-04-30T05:20:26;117.85;;;86.45;;
50906;SDS011;36882;27.680;85.304;2023-04-30T05:22:56;111.28;;;89.95;;
50906;SDS011;36882;27.680;85.304;2023-04-30T05:25:26;119.07;;;85.40;;
50906;SDS011;36882;27.680;85.304;2023-04-30T05:27:56;117.10;;;85.38;;
50906;SDS011;36882;27.680;85.304;2023-04-30T05:30:26;113.45;;;89.15;;
50906;SDS011;36882;27.680;85.304;2023-04-30T05:32:57;114.22;;;86.30;;
50906;SDS011;36882;27.680;85.304;2023-04-30T05:35:27;111.07;;;85.45;;
50906;SDS011;36882;27.680;85.304;2023-04-30T05:37:57;139.15;;;96.55;;
50906;SDS011;36882;27.680;85.304;2023-04-30T05:40:28;130.77;;;96.80;;
50906;SDS011;36882;27.680;85.304;2023-04-30T05:42:58;143.73;;;97.97;;
50906;SDS011;36882;27.680;85.304;2023-04-30T05:45:28;139.90;;;98.00;;
50906;SDS011;36882;27.680;85.304;2023-04-30T05:47:58;137.55;;;100.13;;
50906;SDS011;36882;27.680;85.304;2023-04-30T05:50:30;142.77;;;101.38;;
50906;SDS011;36882;27.680;85.304;2023-04-30T05:53:00;147.07;;;103.88;;
50906;SDS011;36882;27.680;85.304;2023-04-30T05:55:30;156.70;;;104.75;;
50906;SDS011;36882;27.680;85.304;2023-04-30T05:58:00;142.35;;;104.68;;
50906;SDS011;36882;27.680;85.304;2023-04-30T06:00:30;148.90;;;107.80;;
50906;SDS011;36882;27.680;85.304;2023-04-30T06:03:00;152.70;;;107.00;;
50906;SDS011;36882;27.680;85.304;2023-04-30T06:07:59;156.82;;;110.22;;
50906;SDS011;36882;27.680;85.304;2023-04-30T06:10:29;167.38;;;112.07;;
50906;SDS011;36882;27.680;85.304;2023-04-30T06:13:00;176.02;;;116.22;;
50906;SDS011;36882;27.680;85.304;2023-04-30T06:15:29;167.77;;;116.43;;
50906;SDS011;36882;27.680;85.304;2023-04-30T06:17:59;181.43;;;116.38;;
50906;SDS011;36882;27.680;85.304;2023-04-30T06:20:29;169.07;;;111.72;;
50906;SDS011;36882;27.680;85.304;2023-04-30T06:22:59;154.52;;;113.35;;
50906;SDS011;36882;27.680;85.304;2023-04-30T06:25:30;158.88;;;107.05;;
50906;SDS011;36882;27.680;85.304;2023-04-30T06:28:00;142.32;;;98.50;;
50906;SDS011;36882;27.680;85.304;2023-04-30T06:30:30;133.68;;;100.63;;
50906;SDS011;36882;27.680;85.304;2023-04-30T06:33:01;122.72;;;90.40;;
50906;SDS011;36882;27.680;85.304;2023-04-30T06:35:31;122.25;;;91.18;;
50906;SDS011;36882;27.680;85.304;2023-04-30T06:38:01;118.47;;;89.22;;
50906;SDS011;36882;27.680;85.304;2023-04-30T06:40:31;119.40;;;89.18;;
50906;SDS011;36882;27.680;85.304;2023-04-30T06:43:01;109.38;;;81.25;;
50906;SDS011;36882;27.680;85.304;2023-04-30T06:45:31;110.40;;;82.95;;
50906;SDS011;36882;27.680;85.304;2023-04-30T06:48:01;110.10;;;80.13;;
50906;SDS011;36882;27.680;85.304;2023-04-30T06:50:30;114.88;;;84.05;;
50906;SDS011;36882;27.680;85.304;2023-04-30T06:53:00;107.03;;;83.55;;
50906;SDS011;36882;27.680;85.304;2023-04-30T06:55:30;107.32;;;83.90;;
50906;SDS011;36882;27.680;85.304;2023-04-30T06:58:00;106.00;;;83.05;;
50906;SDS011;36882;27.680;85.304;2023-04-30T07:00:30;109.72;;;86.22;;
50906;SDS011;36882;27.680;85.304;2023-04-30T07:05:31;128.90;;;94.47;;
50906;SDS011;36882;27.680;85.304;2023-04-30T07:08:01;122.97;;;92.30;;
50906;SDS011;36882;27.680;85.304;2023-04-30T07:10:32;136.43;;;99.40;;
50906;SDS011;36882;27.680;85.304;2023-04-30T07:13:02;128.10;;;101.90;;
50906;SDS011;36882;27.680;85.304;2023-04-30T07:15:33;125.32;;;96.75;;
50906;SDS011;36882;27.680;85.304;2023-04-30T07:18:03;119.50;;;94.55;;
50906;SDS011;36882;27.680;85.304;2023-04-30T07:20:36;131.05;;;98.22;;
50906;SDS011;36882;27.680;85.304;2023-04-30T07:23:06;128.32;;;100.68;;
50906;SDS011;36882;27.680;85.304;2023-04-30T07:25:36;127.20;;;100.57;;
50906;SDS011;36882;27.680;85.304;2023-04-30T07:28:06;128.27;;;99.18;;
50906;SDS011;36882;27.680;85.304;2023-04-30T07:30:36;117.50;;;93.13;;
50906;SDS011;36882;27.680;85.304;2023-04-30T07:33:06;126.72;;;100.05;;
50906;SDS011;36882;27.680;85.304;2023-04-30T07:38:06;120.88;;;97.05;;
50906;SDS011;36882;27.680;85.304;2023-04-30T07:40:36;125.78;;;101.60;;
50906;SDS011;36882;27.680;85.304;2023-04-30T07:43:06;124.70;;;99.70;;
50906;SDS011;36882;27.680;85.304;2023-04-30T07:45:36;132.10;;;103.80;;
50906;SDS011;36882;27.680;85.304;2023-04-30T07:48:06;130.20;;;98.32;;
50906;SDS011;36882;27.680;85.304;2023-04-30T07:50:38;130.32;;;103.43;;
50906;SDS011;36882;27.680;85.304;2023-04-30T07:53:10;121.22;;;97.38;;
50906;SDS011;36882;27.680;85.304;2023-04-30T07:55:40;136.75;;;103.75;;
50906;SDS011;36882;27.680;85.304;2023-04-30T07:58:10;142.25;;;109.78;;
50906;SDS011;36882;27.680;85.304;2023-04-30T08:03:09;134.63;;;103.23;;
50906;SDS011;36882;27.680;85.304;2023-04-30T08:05:39;140.60;;;106.00;;
50906;SDS011;36882;27.680;85.304;2023-04-30T08:08:09;135.05;;;105.45;;
50906;SDS011;36882;27.680;85.304;2023-04-30T08:10:39;131.10;;;100.68;;
50906;SDS011;36882;27.680;85.304;2023-04-30T08:15:39;120.35;;;97.25;;
50906;SDS011;36882;27.680;85.304;2023-04-30T08:18:10;130.15;;;101.28;;
50906;SDS011;36882;27.680;85.304;2023-04-30T08:20:40;124.63;;;99.18;;
50906;SDS011;36882;27.680;85.304;2023-04-30T08:23:10;134.82;;;104.72;;
50906;SDS011;36882;27.680;85.304;2023-04-30T08:28:10;147.48;;;104.60;;
50906;SDS011;36882;27.680;85.304;2023-04-30T08:30:40;133.32;;;106.43;;
50906;SDS011;36882;27.680;85.304;2023-04-30T08:35:41;135.32;;;103.22;;
50906;SDS011;36882;27.680;85.304;2023-04-30T08:38:11;133.27;;;104.85;;
50906;SDS011;36882;27.680;85.304;2023-04-30T08:40:41;135.90;;;102.80;;
50906;SDS011;36882;27.680;85.304;2023-04-30T08:43:18;135.15;;;112.72;;
50906;SDS011;36882;27.680;85.304;2023-04-30T08:45:48;140.23;;;111.85;;
50906;SDS011;36882;27.680;85.304;2023-04-30T08:48:19;144.60;;;110.30;;
50906;SDS011;36882;27.680;85.304;2023-04-30T08:50:50;148.05;;;111.13;;
50906;SDS011;36882;27.680;85.304;2023-04-30T08:53:20;142.63;;;115.25;;
50906;SDS011;36882;27.680;85.304;2023-04-30T08:55:51;143.63;;;114.97;;
50906;SDS011;36882;27.680;85.304;2023-04-30T08:58:21;142.02;;;110.57;;
50906;SDS011;36882;27.680;85.304;2023-04-30T09:00:51;141.95;;;113.32;;
50906;SDS011;36882;27.680;85.304;2023-04-30T09:03:21;138.75;;;109.47;;
50906;SDS011;36882;27.680;85.304;2023-04-30T09:05:53;141.23;;;109.90;;
50906;SDS011;36882;27.680;85.304;2023-04-30T09:08:40;138.55;;;111.80;;
50906;SDS011;36882;27.680;85.304;2023-04-30T09:11:19;146.38;;;112.85;;
50906;SDS011;36882;27.680;85.304;2023-04-30T09:13:51;144.85;;;116.10;;
50906;SDS011;36882;27.680;85.304;2023-04-30T09:16:21;146.00;;;113.78;;
50906;SDS011;36882;27.680;85.304;2023-04-30T09:18:52;137.85;;;112.50;;
50906;SDS011;36882;27.680;85.304;2023-04-30T09:21:31;153.77;;;118.57;;
50906;SDS011;36882;27.680;85.304;2023-04-30T09:24:02;138.57;;;111.53;;
50906;SDS011;36882;27.680;85.304;2023-04-30T09:26:33;141.52;;;115.80;;
50906;SDS011;36882;27.680;85.304;2023-04-30T09:29:18;145.57;;;114.47;;
50906;SDS011;36882;27.680;85.304;2023-04-30T09:31:49;147.75;;;115.55;;
50906;SDS011;36882;27.680;85.304;2023-04-30T09:34:20;140.00;;;112.75;;
50906;SDS011;36882;27.680;85.304;2023-04-30T09:37:03;146.32;;;116.85;;
50906;SDS011;36882;27.680;85.304;2023-04-30T09:39:48;141.82;;;112.75;;
50906;SDS011;36882;27.680;85.304;2023-04-30T09:42:19;152.70;;;114.90;;
50906;SDS011;36882;27.680;85.304;2023-04-30T09:47:21;150.23;;;114.65;;
50906;SDS011;36882;27.680;85.304;2023-04-30T09:49:51;144.77;;;116.03;;
50906;SDS011;36882;27.680;85.304;2023-04-30T09:52:22;150.82;;;115.78;;
50906;SDS011;36882;27.680;85.304;2023-04-30T09:57:22;155.73;;;118.03;;
50906;SDS011;36882;27.680;85.304;2023-04-30T09:59:52;146.23;;;114.45;;
50906;SDS011;36882;27.680;85.304;2023-04-30T10:02:23;153.95;;;120.03;;
50906;SDS011;36882;27.680;85.304;2023-04-30T10:04:54;159.55;;;121.25;;
50906;SDS011;36882;27.680;85.304;2023-04-30T10:07:26;152.82;;;120.15;;
50906;SDS011;36882;27.680;85.304;2023-04-30T10:10:03;144.73;;;117.18;;
50906;SDS011;36882;27.680;85.304;2023-04-30T10:12:43;138.35;;;112.45;;
50906;SDS011;36882;27.680;85.304;2023-04-30T10:15:19;150.05;;;116.38;;
50906;SDS011;36882;27.680;85.304;2023-04-30T10:17:49;151.50;;;117.53;;
50906;SDS011;36882;27.680;85.304;2023-04-30T10:20:23;144.65;;;113.30;;
50906;SDS011;36882;27.680;85.304;2023-04-30T10:22:55;140.38;;;114.10;;
50906;SDS011;36882;27.680;85.304;2023-04-30T10:27:55;159.50;;;116.97;;
50906;SDS011;36882;27.680;85.304;2023-04-30T10:30:25;155.63;;;119.72;;
50906;SDS011;36882;27.680;85.304;2023-04-30T10:33:10;153.00;;;120.72;;
50906;SDS011;36882;27.680;85.304;2023-04-30T10:38:22;153.48;;;118.30;;
50906;SDS011;36882;27.680;85.304;2023-04-30T10:40:54;155.60;;;117.88;;
50906;SDS011;36882;27.680;85.304;2023-04-30T10:43:28;153.23;;;122.40;;
50906;SDS011;36882;27.680;85.304;2023-04-30T10:45:58;163.75;;;123.25;;
50906;SDS011;36882;27.680;85.304;2023-04-30T10:48:28;164.95;;;126.15;;
50906;SDS011;36882;27.680;85.304;2023-04-30T10:50:58;159.27;;;126.22;;
50906;SDS011;36882;27.680;85.304;2023-04-30T10:56:04;154.88;;;121.18;;
50906;SDS011;36882;27.680;85.304;2023-04-30T10:58:37;154.40;;;120.72;;
50906;SDS011;36882;27.680;85.304;2023-04-30T11:01:14;158.23;;;119.15;;
50906;SDS011;36882;27.680;85.304;2023-04-30T11:04:04;161.27;;;123.07;;
50906;SDS011;36882;27.680;85.304;2023-04-30T11:09:36;150.68;;;122.10;;
50906;SDS011;36882;27.680;85.304;2023-04-30T11:14:41;159.88;;;123.50;;
50906;SDS011;36882;27.680;85.304;2023-04-30T11:17:13;151.23;;;121.90;;
50906;SDS011;36882;27.680;85.304;2023-04-30T11:19:50;153.75;;;121.85;;
50906;SDS011;36882;27.680;85.304;2023-04-30T11:22:21;162.73;;;122.20;;
50906;SDS011;36882;27.680;85.304;2023-04-30T11:24:53;157.00;;;124.13;;
50906;SDS011;36882;27.680;85.304;2023-04-30T11:27:23;153.43;;;119.47;;
50906;SDS011;36882;27.680;85.304;2023-04-30T11:29:54;159.65;;;122.78;;
50906;SDS011;36882;27.680;85.304;2023-04-30T11:32:26;160.15;;;120.38;;
50906;SDS011;36882;27.680;85.304;2023-04-30T11:35:02;155.27;;;116.22;;
50906;SDS011;36882;27.680;85.304;2023-04-30T11:37:35;158.20;;;120.68;;
50906;SDS011;36882;27.680;85.304;2023-04-30T11:40:06;156.15;;;123.07;;
50906;SDS011;36882;27.680;85.304;2023-04-30T11:42:38;152.45;;;117.65;;
50906;SDS011;36882;27.680;85.304;2023-04-30T11:45:12;142.40;;;114.90;;
50906;SDS011;36882;27.680;85.304;2023-04-30T11:47:49;149.75;;;114.78;;
50906;SDS011;36882;27.680;85.304;2023-04-30T11:50:20;143.60;;;114.30;;
50906;SDS011;36882;27.680;85.304;2023-04-30T11:52:55;144.18;;;113.63;;
50906;SDS011;36882;27.680;85.304;2023-04-30T11:55:26;138.68;;;111.45;;
50906;SDS011;36882;27.680;85.304;2023-04-30T11:57:57;155.35;;;118.57;;
50906;SDS011;36882;27.680;85.304;2023-04-30T12:00:28;150.75;;;115.65;;
50906;SDS011;36882;27.680;85.304;2023-04-30T12:02:59;149.98;;;119.68;;
50906;SDS011;36882;27.680;85.304;2023-04-30T12:05:30;154.55;;;119.82;;
50906;SDS011;36882;27.680;85.304;2023-04-30T12:08:03;152.38;;;117.03;;
50906;SDS011;36882;27.680;85.304;2023-04-30T12:10:37;148.98;;;119.05;;
50906;SDS011;36882;27.680;85.304;2023-04-30T12:13:07;155.25;;;121.20;;
50906;SDS011;36882;27.680;85.304;2023-04-30T12:15:55;152.05;;;122.85;;
50906;SDS011;36882;27.680;85.304;2023-04-30T12:18:26;162.43;;;121.93;;
50906;SDS011;36882;27.680;85.304;2023-04-30T12:20:56;161.50;;;124.05;;
50906;SDS011;36882;27.680;85.304;2023-04-30T12:23:26;172.98;;;128.88;;
50906;SDS011;36882;27.680;85.304;2023-04-30T12:25:58;165.63;;;122.10;;
50906;SDS011;36882;27.680;85.304;2023-04-30T12:28:29;171.50;;;126.65;;
50906;SDS011;36882;27.680;85.304;2023-04-30T12:31:00;164.93;;;126.65;;
50906;SDS011;36882;27.680;85.304;2023-04-30T12:33:32;155.65;;;122.43;;
50906;SDS011;36882;27.680;85.304;2023-04-30T12:38:33;173.15;;;126.72;;
50906;SDS011;36882;27.680;85.304;2023-04-30T12:41:03;161.57;;;123.30;;
50906;SDS011;36882;27.680;85.304;2023-04-30T12:46:02;151.80;;;120.05;;
50906;SDS011;36882;27.680;85.304;2023-04-30T12:48:41;172.15;;;125.15;;
50906;SDS011;36882;27.680;85.304;2023-04-30T12:51:18;169.48;;;125.10;;
50906;SDS011;36882;27.680;85.304;2023-04-30T12:53:48;172.77;;;126.45;;
50906;SDS011;36882;27.680;85.304;2023-04-30T12:56:18;171.30;;;127.15;;
50906;SDS011;36882;27.680;85.304;2023-04-30T12:58:49;175.38;;;127.15;;
50906;SDS011;36882;27.680;85.304;2023-04-30T13:01:21;173.00;;;130.73;;
50906;SDS011;36882;27.680;85.304;2023-04-30T13:03:52;167.38;;;125.03;;
50906;SDS011;36882;27.680;85.304;2023-04-30T13:06:22;165.30;;;127.72;;
50906;SDS011;36882;27.680;85.304;2023-04-30T13:11:24;179.93;;;123.72;;
50906;SDS011;36882;27.680;85.304;2023-04-30T13:13:54;168.18;;;126.63;;
50906;SDS011;36882;27.680;85.304;2023-04-30T13:16:24;166.63;;;126.65;;
50906;SDS011;36882;27.680;85.304;2023-04-30T13:18:56;176.52;;;128.20;;
50906;SDS011;36882;27.680;85.304;2023-04-30T13:21:26;176.10;;;132.65;;
50906;SDS011;36882;27.680;85.304;2023-04-30T13:23:56;172.80;;;130.07;;
50906;SDS011;36882;27.680;85.304;2023-04-30T13:26:27;179.70;;;131.35;;
50906;SDS011;36882;27.680;85.304;2023-04-30T13:28:57;181.60;;;135.35;;
50906;SDS011;36882;27.680;85.304;2023-04-30T13:31:29;182.45;;;138.35;;
50906;SDS011;36882;27.680;85.304;2023-04-30T13:33:59;167.30;;;128.13;;
50906;SDS011;36882;27.680;85.304;2023-04-30T13:36:30;192.20;;;135.25;;
50906;SDS011;36882;27.680;85.304;2023-04-30T13:39:00;181.07;;;134.15;;
50906;SDS011;36882;27.680;85.304;2023-04-30T13:41:31;178.35;;;138.57;;
50906;SDS011;36882;27.680;85.304;2023-04-30T13:44:01;185.63;;;138.05;;
50906;SDS011;36882;27.680;85.304;2023-04-30T13:46:31;178.75;;;133.88;;
50906;SDS011;36882;27.680;85.304;2023-04-30T13:49:05;189.38;;;141.27;;
50906;SDS011;36882;27.680;85.304;2023-04-30T13:51:36;183.05;;;139.98;;
50906;SDS011;36882;27.680;85.304;2023-04-30T13:54:07;189.45;;;144.20;;
50906;SDS011;36882;27.680;85.304;2023-04-30T13:56:37;199.50;;;143.07;;
50906;SDS011;36882;27.680;85.304;2023-04-30T13:59:08;195.60;;;142.25;;
50906;SDS011;36882;27.680;85.304;2023-04-30T14:04:08;193.43;;;142.13;;
50906;SDS011;36882;27.680;85.304;2023-04-30T14:09:07;200.70;;;145.23;;
50906;SDS011;36882;27.680;85.304;2023-04-30T14:11:38;189.10;;;145.55;;
50906;SDS011;36882;27.680;85.304;2023-04-30T14:14:07;196.73;;;142.23;;
50906;SDS011;36882;27.680;85.304;2023-04-30T14:16:39;199.07;;;141.13;;
50906;SDS011;36882;27.680;85.304;2023-04-30T14:19:10;199.57;;;142.02;;
50906;SDS011;36882;27.680;85.304;2023-04-30T14:21:40;187.63;;;136.85;;
50906;SDS011;36882;27.680;85.304;2023-04-30T14:24:12;177.73;;;133.18;;
50906;SDS011;36882;27.680;85.304;2023-04-30T14:26:43;181.98;;;131.23;;
50906;SDS011;36882;27.680;85.304;2023-04-30T14:29:14;187.20;;;139.50;;
50906;SDS011;36882;27.680;85.304;2023-04-30T14:31:47;196.90;;;142.98;;
50906;SDS011;36882;27.680;85.304;2023-04-30T14:34:18;206.60;;;142.27;;
50906;SDS011;36882;27.680;85.304;2023-04-30T14:36:48;193.55;;;145.85;;
50906;SDS011;36882;27.680;85.304;2023-04-30T14:39:19;181.02;;;139.13;;
50906;SDS011;36882;27.680;85.304;2023-04-30T14:41:49;185.95;;;135.57;;
50906;SDS011;36882;27.680;85.304;2023-04-30T14:44:21;167.27;;;125.30;;
50906;SDS011;36882;27.680;85.304;2023-04-30T14:46:54;168.75;;;128.55;;
50906;SDS011;36882;27.680;85.304;2023-04-30T14:51:54;172.55;;;125.85;;
50906;SDS011;36882;27.680;85.304;2023-04-30T14:54:25;177.02;;;126.80;;
50906;SDS011;36882;27.680;85.304;2023-04-30T14:56:55;167.80;;;124.18;;
50906;SDS011;36882;27.680;85.304;2023-04-30T14:59:26;162.63;;;117.68;;
50906;SDS011;36882;27.680;85.304;2023-04-30T15:01:58;163.32;;;120.28;;
50906;SDS011;36882;27.680;85.304;2023-04-30T15:04:29;154.40;;;118.00;;
50906;SDS011;36882;27.680;85.304;2023-04-30T15:06:59;160.45;;;118.55;;
50906;SDS011;36882;27.680;85.304;2023-04-30T15:09:29;156.93;;;115.40;;
50906;SDS011;36882;27.680;85.304;2023-04-30T15:12:00;152.15;;;110.97;;
50906;SDS011;36882;27.680;85.304;2023-04-30T15:14:30;144.93;;;110.45;;
50906;SDS011;36882;27.680;85.304;2023-04-30T15:17:02;144.38;;;107.10;;
50906;SDS011;36882;27.680;85.304;2023-04-30T15:22:01;133.85;;;101.85;;
50906;SDS011;36882;27.680;85.304;2023-04-30T15:27:01;121.88;;;96.35;;
50906;SDS011;36882;27.680;85.304;2023-04-30T15:29:33;125.78;;;97.60;;